Time,TemperatureF,DewpointF,PressureIn,WindDirection,WindDirectionDegrees,WindSpeedMPH,WindSpeedGustMPH,Humidity,HourlyPrecipIn,Conditions,Clouds,dailyrainin,SoftwareType,DateUTC
2013-05-20 00:14:00,73.1,64.0,29.87,SW,235,2.0,6.0,72,0.00,,,0.00,weatherlink.com 1.10,2013-05-20 04:14:00,
2013-05-20 00:29:00,73.1,64.0,29.87,SW,225,2.0,7.0,72,0.00,,,0.00,weatherlink.com 1.10,2013-05-20 04:29:00,
2013-05-20 00:44:00,72.7,64.0,29.87,SSW,208,2.0,5.0,73,0.00,,,0.00,weatherlink.com 1.10,2013-05-20 04:44:00,
2013-05-20 00:59:00,72.4,63.0,29.87,SW,222,5.0,5.0,73,0.00,,,0.00,weatherlink.com 1.10,2013-05-20 04:59:00,
2013-05-20 01:14:00,72.1,63.0,29.87,SW,233,3.0,6.0,74,0.00,,,0.00,weatherlink.com 1.10,2013-05-20 05:14:00,
2013-05-20 01:29:00,71.9,64.0,29.87,SE,146,1.0,9.0,75,0.00,,,0.00,weatherlink.com 1.10,2013-05-20 05:29:00,
2013-05-20 01:44:00,71.8,64.0,29.86,South,176,5.0,7.0,75,0.00,,,0.00,weatherlink.com 1.10,2013-05-20 05:44:00,
2013-05-20 01:59:00,71.7,63.0,29.86,WSW,243,2.0,8.0,75,0.00,,,0.00,weatherlink.com 1.10,2013-05-20 05:59:00,
2013-05-20 02:14:00,71.4,64.0,29.85,SSE,156,1.0,7.0,76,0.00,,,0.00,weatherlink.com 1.10,2013-05-20 06:14:00,
2013-05-20 02:29:00,71.0,63.0,29.85,SW,221,3.0,7.0,77,0.00,,,0.00,weatherlink.com 1.10,2013-05-20 06:29:00,
2013-05-20 02:44:00,70.9,63.0,29.85,South,181,2.0,9.0,77,0.00,,,0.00,weatherlink.com 1.10,2013-05-20 06:44:00,
2013-05-20 02:59:00,70.4,63.0,29.85,WSW,253,2.0,9.0,78,0.00,,,0.00,weatherlink.com 1.10,2013-05-20 06:59:00,
2013-05-20 03:14:00,70.3,63.0,29.86,SE,146,2.0,8.0,78,0.00,,,0.00,weatherlink.com 1.10,2013-05-20 07:14:00,
2013-05-20 03:29:00,70.1,63.0,29.85,SW,217,4.0,10.0,78,0.00,,,0.00,weatherlink.com 1.10,2013-05-20 07:29:00,
2013-05-20 03:44:00,69.6,63.0,29.85,SW,236,7.0,9.0,79,0.00,,,0.00,weatherlink.com 1.10,2013-05-20 07:44:00,
2013-05-20 03:59:00,69.2,63.0,29.85,SSW,204,0.0,4.0,80,0.00,,,0.00,weatherlink.com 1.10,2013-05-20 07:59:00,
2013-05-20 04:14:00,69.0,63.0,29.84,South,181,5.0,7.0,80,0.00,,,0.00,weatherlink.com 1.10,2013-05-20 08:14:00,
2013-05-20 04:29:00,69.0,63.0,29.86,WNW,283,3.0,8.0,81,0.00,,,0.00,weatherlink.com 1.10,2013-05-20 08:29:00,
2013-05-20 04:44:00,68.9,63.0,29.86,WSW,248,3.0,5.0,81,0.00,,,0.00,weatherlink.com 1.10,2013-05-20 08:44:00,
2013-05-20 04:59:00,68.6,63.0,29.86,SW,221,3.0,7.0,82,0.00,,,0.00,weatherlink.com 1.10,2013-05-20 08:59:00,
2013-05-20 05:14:00,68.5,63.0,29.86,WNW,289,2.0,6.0,83,0.00,,,0.00,weatherlink.com 1.10,2013-05-20 09:14:00,
2013-05-20 05:29:00,68.0,63.0,29.87,West,259,2.0,6.0,84,0.00,,,0.00,weatherlink.com 1.10,2013-05-20 09:29:00,
2013-05-20 05:44:00,68.0,63.0,29.85,WSW,248,2.0,5.0,84,0.00,,,0.00,weatherlink.com 1.10,2013-05-20 09:44:00,
2013-05-20 05:59:00,68.0,63.0,29.84,SW,221,1.0,8.0,84,0.00,,,0.00,weatherlink.com 1.10,2013-05-20 09:59:00,
2013-05-20 06:14:00,68.1,63.0,29.85,SSW,198,2.0,5.0,84,0.00,,,0.00,weatherlink.com 1.10,2013-05-20 10:14:00,
2013-05-20 06:29:00,68.1,63.0,29.85,WSW,256,3.0,6.0,84,0.00,,,0.00,weatherlink.com 1.10,2013-05-20 10:29:00,
2013-05-20 06:44:00,68.6,64.0,29.85,SW,235,0.0,4.0,84,0.00,,,0.00,weatherlink.com 1.10,2013-05-20 10:44:00,
2013-05-20 06:59:00,70.1,64.0,29.84,South,169,3.0,8.0,81,0.00,,,0.00,weatherlink.com 1.10,2013-05-20 10:59:00,
2013-05-20 07:14:00,71.4,64.0,29.84,South,179,3.0,8.0,78,0.00,,,0.00,weatherlink.com 1.10,2013-05-20 11:14:00,
2013-05-20 07:29:00,72.8,65.0,29.84,SSW,208,4.0,5.0,76,0.00,,,0.00,weatherlink.com 1.10,2013-05-20 11:29:00,
2013-05-20 07:45:00,73.1,65.0,29.83,SE,143,5.0,9.0,75,0.00,,,0.00,weatherlink.com 1.10,2013-05-20 11:45:00,
2013-05-20 08:00:00,72.9,65.0,29.83,SSW,192,6.0,9.0,75,0.00,,,0.00,weatherlink.com 1.10,2013-05-20 12:00:00,
2013-05-20 08:15:00,73.3,65.0,29.82,SW,233,6.0,10.0,75,0.00,,,0.00,weatherlink.com 1.10,2013-05-20 12:15:00,
2013-05-20 08:30:00,75.0,66.0,29.83,West,262,0.0,8.0,73,0.00,,,0.00,weatherlink.com 1.10,2013-05-20 12:30:00,
2013-05-20 08:45:00,75.7,66.0,29.85,WSW,245,2.0,9.0,72,0.00,,,0.00,weatherlink.com 1.10,2013-05-20 12:45:00,
2013-05-20 09:00:00,75.7,66.0,29.84,SW,236,1.0,9.0,73,0.00,,,0.00,weatherlink.com 1.10,2013-05-20 13:00:00,
2013-05-20 09:15:00,77.1,67.0,29.85,SW,214,5.0,9.0,71,0.00,,,0.00,weatherlink.com 1.10,2013-05-20 13:15:00,
2013-05-20 09:30:00,78.9,67.0,29.84,WNW,300,2.0,9.0,68,0.00,,,0.00,weatherlink.com 1.10,2013-05-20 13:30:00,
2013-05-20 09:45:00,79.9,68.0,29.85,SSW,210,3.0,8.0,66,0.00,,,0.00,weatherlink.com 1.10,2013-05-20 13:45:00,
2013-05-20 10:00:00,79.3,68.0,29.84,SSW,207,6.0,8.0,69,0.00,,,0.00,weatherlink.com 1.10,2013-05-20 14:00:00,
2013-05-20 10:15:00,79.0,70.0,29.83,West,269,1.0,6.0,73,0.00,,,0.00,weatherlink.com 1.10,2013-05-20 14:15:00,
2013-05-20 10:30:00,80.0,69.0,29.83,SW,229,5.0,7.0,68,0.00,,,0.00,weatherlink.com 1.10,2013-05-20 14:30:00,
2013-05-20 10:45:00,79.3,69.0,29.83,WSW,246,1.0,5.0,70,0.00,,,0.00,weatherlink.com 1.10,2013-05-20 14:45:00,
2013-05-20 11:00:00,80.7,69.0,29.83,West,262,1.0,8.0,67,0.00,,,0.00,weatherlink.com 1.10,2013-05-20 15:00:00,
2013-05-20 11:15:00,82.2,69.0,29.83,SW,214,5.0,8.0,64,0.00,,,0.00,weatherlink.com 1.10,2013-05-20 15:15:00,
2013-05-20 11:30:00,82.1,69.0,29.82,SW,221,3.0,9.0,65,0.00,,,0.00,weatherlink.com 1.10,2013-05-20 15:30:00,
2013-05-20 11:45:00,83.4,70.0,29.81,SW,231,1.0,7.0,64,0.00,,,0.00,weatherlink.com 1.10,2013-05-20 15:45:00,
2013-05-20 12:00:00,83.5,70.0,29.80,ENE,59,2.0,10.0,64,0.00,,,0.00,weatherlink.com 1.10,2013-05-20 16:00:00,
2013-05-20 12:15:00,84.0,70.0,29.80,SW,231,5.0,12.0,62,0.00,,,0.00,weatherlink.com 1.10,2013-05-20 16:15:00,
2013-05-20 12:30:00,84.7,70.0,29.79,NNE,20,2.0,10.0,62,0.00,,,0.00,weatherlink.com 1.10,2013-05-20 16:30:00,
2013-05-20 12:45:00,85.6,70.0,29.78,West,263,4.0,13.0,60,0.00,,,0.00,weatherlink.com 1.10,2013-05-20 16:45:00,
2013-05-20 13:00:00,86.1,70.0,29.78,SW,225,9.0,12.0,58,0.00,,,0.00,weatherlink.com 1.10,2013-05-20 17:00:00,
2013-05-20 13:15:00,86.3,68.0,29.77,SSW,205,8.0,13.0,55,0.00,,,0.00,weatherlink.com 1.10,2013-05-20 17:15:00,
2013-05-20 13:31:00,87.0,68.0,29.78,SSW,203,3.0,12.0,53,0.00,,,0.00,weatherlink.com 1.10,2013-05-20 17:31:00,
2013-05-20 13:46:00,87.9,68.0,29.76,SSW,195,5.0,11.0,52,0.00,,,0.00,weatherlink.com 1.10,2013-05-20 17:46:00,
2013-05-20 14:01:00,87.6,68.0,29.75,South,172,6.0,16.0,52,0.00,,,0.00,weatherlink.com 1.10,2013-05-20 18:01:00,
2013-05-20 14:16:00,88.4,68.0,29.75,West,269,4.0,12.0,51,0.00,,,0.00,weatherlink.com 1.10,2013-05-20 18:16:00,
2013-05-20 14:31:00,89.0,68.0,29.73,WSW,245,3.0,19.0,50,0.00,,,0.00,weatherlink.com 1.10,2013-05-20 18:31:00,
2013-05-20 14:46:00,89.9,67.0,29.73,West,259,5.0,13.0,47,0.00,,,0.00,weatherlink.com 1.10,2013-05-20 18:46:00,
2013-05-20 15:01:00,88.6,68.0,29.72,South,184,14.0,15.0,50,0.00,,,0.00,weatherlink.com 1.10,2013-05-20 19:01:00,
2013-05-20 15:16:00,88.6,67.0,29.71,WSW,249,4.0,12.0,49,0.00,,,0.00,weatherlink.com 1.10,2013-05-20 19:16:00,
2013-05-20 15:31:00,89.8,66.0,29.70,SW,222,3.0,12.0,46,0.00,,,0.00,weatherlink.com 1.10,2013-05-20 19:31:00,
2013-05-20 15:46:00,90.5,66.0,29.68,West,277,6.0,13.0,45,0.00,,,0.00,weatherlink.com 1.10,2013-05-20 19:46:00,
2013-05-20 16:01:00,90.1,67.0,29.68,SSW,198,4.0,13.0,47,0.00,,,0.00,weatherlink.com 1.10,2013-05-20 20:01:00,
2013-05-20 16:16:00,88.7,66.0,29.68,West,274,5.0,16.0,47,0.00,,,0.00,weatherlink.com 1.10,2013-05-20 20:16:00,
2013-05-20 16:31:00,88.6,66.0,29.68,SSW,213,3.0,12.0,48,0.00,,,0.00,weatherlink.com 1.10,2013-05-20 20:31:00,
2013-05-20 16:46:00,89.7,67.0,29.70,West,263,3.0,16.0,48,0.00,,,0.00,weatherlink.com 1.10,2013-05-20 20:46:00,
2013-05-20 17:01:00,84.7,62.0,29.73,West,274,10.0,29.0,46,0.00,,,0.00,weatherlink.com 1.10,2013-05-20 21:01:00,
2013-05-20 17:16:00,74.4,61.0,29.77,NNE,19,8.0,16.0,63,0.00,,,0.00,weatherlink.com 1.10,2013-05-20 21:16:00,
2013-05-20 17:31:00,68.6,62.0,29.77,WNW,290,6.0,14.0,80,0.00,,,0.00,weatherlink.com 1.10,2013-05-20 21:31:00,
2013-05-20 17:46:00,66.2,63.0,29.77,West,259,8.0,12.0,90,0.27,,,0.27,weatherlink.com 1.10,2013-05-20 21:46:00,
2013-05-20 18:01:00,66.1,63.0,29.74,WSW,249,6.0,22.0,90,0.38,,,0.38,weatherlink.com 1.10,2013-05-20 22:01:00,
2013-05-20 18:16:00,67.5,64.0,29.75,West,273,3.0,15.0,89,0.38,,,0.38,weatherlink.com 1.10,2013-05-20 22:16:00,
2013-05-20 18:31:00,68.0,65.0,29.74,WSW,238,7.0,11.0,90,0.37,,,0.38,weatherlink.com 1.10,2013-05-20 22:31:00,
2013-05-20 18:46:00,68.2,65.0,29.74,WSW,249,3.0,11.0,89,0.11,,,0.38,weatherlink.com 1.10,2013-05-20 22:46:00,
2013-05-20 19:01:00,68.0,65.0,29.75,WSW,255,5.0,9.0,90,0.00,,,0.38,weatherlink.com 1.10,2013-05-20 23:01:00,
2013-05-20 19:16:00,68.3,65.0,29.75,West,266,2.0,8.0,90,0.00,,,0.38,weatherlink.com 1.10,2013-05-20 23:16:00,
2013-05-20 19:31:00,68.2,65.0,29.75,West,267,2.0,7.0,88,0.00,,,0.38,weatherlink.com 1.10,2013-05-20 23:31:00,
2013-05-20 19:46:00,67.8,65.0,29.75,West,267,2.0,6.0,89,0.00,,,0.38,weatherlink.com 1.10,2013-05-20 23:46:00,
2013-05-20 20:01:00,67.7,65.0,29.74,WSW,250,3.0,4.0,90,0.00,,,0.38,weatherlink.com 1.10,2013-05-21 00:01:00,
2013-05-20 20:16:00,67.5,65.0,29.73,WNW,294,3.0,5.0,90,0.00,,,0.38,weatherlink.com 1.10,2013-05-21 00:16:00,
2013-05-20 20:31:00,67.4,64.0,29.72,West,259,2.0,5.0,89,0.00,,,0.38,weatherlink.com 1.10,2013-05-21 00:31:00,
2013-05-20 20:46:00,67.1,64.0,29.73,WSW,246,1.0,3.0,90,0.00,,,0.38,weatherlink.com 1.10,2013-05-21 00:46:00,
2013-05-20 21:01:00,67.1,65.0,29.73,West,266,0.0,0.0,91,0.00,,,0.38,weatherlink.com 1.10,2013-05-21 01:01:00,
2013-05-20 21:16:00,67.1,65.0,29.74,WSW,250,0.0,2.0,91,0.00,,,0.38,weatherlink.com 1.10,2013-05-21 01:16:00,
2013-05-20 21:31:00,67.5,64.0,29.75,SE,138,0.0,3.0,89,0.00,,,0.38,weatherlink.com 1.10,2013-05-21 01:31:00,
2013-05-20 21:46:00,67.5,64.0,29.75,SW,232,0.0,2.0,89,0.00,,,0.38,weatherlink.com 1.10,2013-05-21 01:46:00,
2013-05-20 22:01:00,67.5,64.0,29.75,ESE,123,0.0,2.0,89,0.00,,,0.38,weatherlink.com 1.10,2013-05-21 02:01:00,
2013-05-20 22:16:00,67.5,65.0,29.76,SSW,204,1.0,3.0,90,0.00,,,0.38,weatherlink.com 1.10,2013-05-21 02:16:00,
2013-05-20 22:31:00,67.3,65.0,29.76,SW,221,0.0,3.0,91,0.00,,,0.38,weatherlink.com 1.10,2013-05-21 02:31:00,
2013-05-20 22:46:00,67.0,64.0,29.76,SW,221,0.0,2.0,91,0.00,,,0.38,weatherlink.com 1.10,2013-05-21 02:46:00,
2013-05-20 23:01:00,66.6,64.0,29.75,West,272,2.0,2.0,92,0.00,,,0.38,weatherlink.com 1.10,2013-05-21 03:01:00,
2013-05-20 23:16:00,66.9,65.0,29.75,SW,228,2.0,4.0,92,0.00,,,0.38,weatherlink.com 1.10,2013-05-21 03:16:00,
2013-05-20 23:31:00,67.1,65.0,29.75,West,262,0.0,2.0,92,0.00,,,0.38,weatherlink.com 1.10,2013-05-21 03:31:00,
2013-05-20 23:46:00,67.1,65.0,29.75,WSW,256,1.0,3.0,91,0.00,,,0.38,weatherlink.com 1.10,2013-05-21 03:46:00,